Time;durP1;ratioP1;P1;durP2;ratioP2;P2;SDS_P1;SDS_P2;PMS_P1;PMS_P2;Temp;Humidity;BMP_temperature;BMP_pressure;BME280_temperature;BME280_humidity;BME280_pressure;Samples;Min_cycle;Max_cycle;Signal;HPM_P1;HPM_P2
2021/01/14 08:35:37;;;;;;;6.50;3.60;;;3.00;99.90;;;;;;5191831;22;20348;-81
2021/01/14 08:38:14;;;;;;;7.15;4.00;;;3.00;99.90;;;;;;5018167;28;20066;-81
2021/01/14 08:40:43;;;;;;;9.18;3.83;;;2.90;99.90;;;;;;5005703;28;20046;-81
2021/01/14 08:43:11;;;;;;;7.35;4.50;;;3.00;99.90;;;;;;5021610;28;20050;-81
2021/01/14 08:48:23;;;;;;;6.95;4.75;;;3.10;99.90;;;;;;6041035;23;20017;-82
2021/01/14 08:51:04;;;;;;;8.05;3.83;;;3.00;99.90;;;;;;5035756;28;20038;-82
2021/01/14 08:53:34;;;;;;;6.85;4.07;;;3.00;99.90;;;;;;5040814;28;20034;-84
2021/01/14 08:56:05;;;;;;;7.50;3.97;;;3.00;99.90;;;;;;5024282;28;20057;-84
2021/01/14 08:58:39;;;;;;;6.95;3.95;;;3.00;99.70;;;;;;5040889;28;20098;-84
2021/01/14 09:01:09;;;;;;;8.85;3.60;;;2.90;99.50;;;;;;5040916;28;20045;-82
2021/01/14 09:03:37;;;;;;;6.88;3.45;;;2.90;98.50;;;;;;5023458;28;20046;-83
2021/01/14 09:06:06;;;;;;;6.60;3.60;;;3.00;99.10;;;;;;5040140;28;20076;-83
2021/01/14 09:08:33;;;;;;;6.95;4.28;;;2.90;98.90;;;;;;5023616;28;20049;-83
2021/01/14 09:11:05;;;;;;;7.15;3.70;;;3.00;99.10;;;;;;5023322;28;20030;-83
2021/01/14 09:13:34;;;;;;;7.20;3.70;;;3.20;99.10;;;;;;5040134;28;20041;-81
2021/01/14 09:16:10;;;;;;;7.35;3.45;;;3.10;99.10;;;;;;5023867;28;20053;-83
2021/01/14 09:18:42;;;;;;;6.55;3.30;;;3.00;98.90;;;;;;5040677;28;20058;-82
2021/01/14 09:21:12;;;;;;;5.35;3.00;;;3.10;99.10;;;;;;5040151;28;20105;-82
2021/01/14 09:23:41;;;;;;;4.95;3.17;;;3.00;98.90;;;;;;5040494;28;20054;-83
2021/01/14 09:26:14;;;;;;;5.80;2.60;;;3.20;98.70;;;;;;5039988;28;20053;-84
2021/01/14 09:28:42;;;;;;;6.15;3.08;;;3.00;98.70;;;;;;5023011;28;20065;-83
2021/01/14 10:19:50;;;;;;;7.27;3.27;;;3.00;98.10;;;;;;4889672;26;20303;-83
2021/01/14 10:22:18;;;;;;;5.70;2.97;;;3.10;97.70;;;;;;4977584;28;20136;-83
2021/01/14 10:24:46;;;;;;;6.97;3.60;;;3.00;97.30;;;;;;4963280;28;20058;-84
2021/01/14 10:27:15;;;;;;;7.03;3.00;;;2.90;97.50;;;;;;4963196;29;20039;-83
2021/01/14 10:29:43;;;;;;;8.80;3.70;;;3.10;98.00;;;;;;4979901;28;20047;-84
2021/01/14 10:32:13;;;;;;;7.22;3.60;;;3.00;97.90;;;;;;4979882;28;20058;-82
2021/01/14 10:34:42;;;;;;;7.50;2.90;;;2.90;97.80;;;;;;4980044;28;20038;-83
2021/01/14 10:37:24;;;;;;;5.05;2.28;;;3.10;96.70;;;;;;4979998;28;20034;-83
2021/01/14 10:39:53;;;;;;;3.95;1.85;;;2.70;96.50;;;;;;4980664;28;20043;-82
2021/01/14 10:42:33;;;;;;;4.65;1.90;;;2.40;96.40;;;;;;4980028;28;20039;-84
2021/01/14 10:45:06;;;;;;;4.20;2.08;;;2.40;96.60;;;;;;4980386;28;20047;-85
2021/01/14 10:47:35;;;;;;;4.50;2.13;;;2.40;96.90;;;;;;4979757;28;20031;-83
2021/01/14 10:50:21;;;;;;;5.47;2.17;;;2.30;97.60;;;;;;4980087;28;20056;-82
2021/01/14 10:52:57;;;;;;;3.63;1.40;;;2.30;97.40;;;;;;4979369;28;20031;-82
2021/01/14 10:55:25;;;;;;;4.03;2.00;;;2.40;96.40;;;;;;4979796;28;20062;-83
2021/01/14 10:57:55;;;;;;;4.65;1.55;;;2.20;96.70;;;;;;4979641;28;20066;-82
2021/01/14 11:00:25;;;;;;;3.10;1.60;;;2.50;96.60;;;;;;4980112;28;20058;-82
2021/01/14 11:03:03;;;;;;;4.18;1.10;;;2.10;96.40;;;;;;4979188;28;20079;-85
2021/01/14 11:05:43;;;;;;;3.40;1.50;;;2.20;96.40;;;;;;4980038;28;20049;-82
2021/01/14 11:08:13;;;;;;;3.08;1.20;;;2.00;96.80;;;;;;4963158;29;20034;-83
2021/01/14 11:43:33;;;;;;;5.63;2.30;;;1.90;98.10;;;;;;6178524;23;20269;-82
2021/01/14 11:46:01;;;;;;;4.18;2.20;;;1.80;98.20;;;;;;4975880;28;20295;-82
2021/01/14 11:48:29;;;;;;;4.13;1.98;;;1.80;97.90;;;;;;4981063;28;20051;-81
2021/01/14 11:50:56;;;;;;;4.50;2.00;;;2.00;98.00;;;;;;4980015;28;20062;-81
2021/01/14 11:53:23;;;;;;;4.03;2.15;;;1.90;97.80;;;;;;4975896;28;20058;-82
2021/01/14 11:55:51;;;;;;;5.13;2.20;;;1.70;98.10;;;;;;4975665;29;20059;-82
2021/01/14 11:58:20;;;;;;;3.35;1.70;;;1.80;98.10;;;;;;4962783;29;20071;-82
2021/01/14 12:00:48;;;;;;;4.88;1.80;;;1.80;97.60;;;;;;4965230;29;20031;-82
2021/01/14 12:03:15;;;;;;;4.78;1.80;;;2.00;97.90;;;;;;4965526;29;20035;-82
2021/01/14 12:05:43;;;;;;;3.97;1.52;;;2.00;98.00;;;;;;4965110;28;20071;-82
2021/01/14 12:08:10;;;;;;;4.78;1.95;;;1.80;97.50;;;;;;4964059;28;20043;-82
2021/01/14 12:10:37;;;;;;;3.58;1.70;;;1.80;97.70;;;;;;4981280;28;20035;-82
2021/01/14 12:13:04;;;;;;;4.47;1.70;;;1.80;97.90;;;;;;4980721;29;20035;-82
2021/01/14 12:15:31;;;;;;;3.53;1.70;;;1.80;97.90;;;;;;4962930;29;20046;-81
2021/01/14 12:17:59;;;;;;;4.05;1.60;;;1.90;97.90;;;;;;4977477;29;20057;-81
2021/01/14 12:20:26;;;;;;;4.28;1.90;;;1.80;98.30;;;;;;4975716;28;20055;-81
2021/01/14 12:22:55;;;;;;;3.70;1.75;;;1.80;98.20;;;;;;4962804;29;20059;-81
2021/01/14 12:25:22;;;;;;;4.00;1.70;;;1.90;98.10;;;;;;4978178;29;20166;-83
2021/01/14 12:27:50;;;;;;;4.32;1.60;;;1.90;98.00;;;;;;4961107;29;20062;-81
2021/01/14 12:30:21;;;;;;;3.45;1.63;;;1.80;98.10;;;;;;4978526;29;20087;-83
2021/01/14 12:32:47;;;;;;;4.80;1.60;;;1.80;98.20;;;;;;4962879;29;20068;-83
2021/01/14 12:35:16;;;;;;;4.47;2.00;;;1.80;98.60;;;;;;4978310;28;20129;-82
2021/01/14 12:37:43;;;;;;;3.83;1.80;;;2.00;98.40;;;;;;4977864;28;20050;-82
2021/01/14 12:40:11;;;;;;;4.20;1.75;;;2.00;98.10;;;;;;4980141;29;20039;-82
2021/01/14 12:42:38;;;;;;;3.88;1.67;;;2.10;98.00;;;;;;4962372;29;20091;-82
2021/01/14 12:45:07;;;;;;;4.00;1.65;;;2.20;97.60;;;;;;4974455;28;20043;-81
2021/01/14 12:47:34;;;;;;;4.72;1.70;;;2.20;97.50;;;;;;4981993;28;20074;-81
2021/01/14 12:50:01;;;;;;;4.32;1.75;;;2.20;97.20;;;;;;4979683;28;20094;-83
2021/01/14 12:52:30;;;;;;;5.18;1.90;;;2.20;97.50;;;;;;4978947;28;20051;-81
2021/01/14 12:54:57;;;;;;;3.90;1.90;;;2.10;97.50;;;;;;4981785;28;20086;-81
2021/01/14 12:57:24;;;;;;;4.10;1.90;;;2.10;97.90;;;;;;4998634;28;20030;-82
2021/01/14 12:59:50;;;;;;;3.42;1.77;;;2.10;97.70;;;;;;4983278;28;20050;-82
2021/01/14 13:02:17;;;;;;;3.78;1.80;;;2.00;97.90;;;;;;5000778;28;20062;-82
2021/01/14 13:04:44;;;;;;;3.80;1.70;;;2.30;97.50;;;;;;5000186;28;20081;-82
2021/01/14 13:07:10;;;;;;;3.95;1.90;;;2.30;96.80;;;;;;4999744;28;20062;-83
2021/01/14 13:09:38;;;;;;;4.55;2.40;;;2.30;97.00;;;;;;4999302;28;20039;-82
2021/01/14 13:12:06;;;;;;;3.85;1.92;;;2.40;97.00;;;;;;4996343;28;20066;-83
2021/01/14 13:14:33;;;;;;;3.50;1.80;;;2.40;96.80;;;;;;4998419;28;20078;-82
2021/01/14 13:17:00;;;;;;;4.22;1.63;;;2.50;96.60;;;;;;4996876;28;20078;-81
2021/01/14 13:19:27;;;;;;;4.03;2.03;;;2.50;96.60;;;;;;4996440;28;20051;-83
2021/01/14 13:21:54;;;;;;;4.20;1.70;;;2.40;96.70;;;;;;4999649;28;20035;-82
2021/01/14 13:24:21;;;;;;;3.95;1.63;;;2.40;96.50;;;;;;4999028;28;20034;-81
2021/01/14 13:26:49;;;;;;;5.30;2.05;;;2.40;96.60;;;;;;4982700;28;20071;-82
2021/01/14 13:29:18;;;;;;;5.00;2.30;;;2.40;96.70;;;;;;4981609;28;20041;-82
2021/01/14 13:31:50;;;;;;;5.63;2.10;;;2.50;96.80;;;;;;4998758;28;20138;-82
2021/01/14 13:34:19;;;;;;;4.07;1.90;;;2.50;96.40;;;;;;4998153;28;20078;-82
2021/01/14 13:36:49;;;;;;;4.60;1.80;;;2.50;96.40;;;;;;4997964;28;20059;-81
2021/01/14 13:39:17;;;;;;;4.55;1.90;;;2.60;96.40;;;;;;4983025;28;20043;-82
2021/01/14 13:41:49;;;;;;;4.40;1.92;;;2.70;96.30;;;;;;4982356;28;20094;-81
2021/01/14 13:44:18;;;;;;;4.57;2.33;;;2.60;96.30;;;;;;4998954;28;20078;-81
2021/01/14 13:46:45;;;;;;;4.45;1.98;;;2.70;96.10;;;;;;4999139;28;20062;-82
2021/01/14 13:49:12;;;;;;;4.53;2.17;;;2.70;96.00;;;;;;4997899;28;20078;-81
2021/01/14 13:51:40;;;;;;;5.25;2.10;;;2.70;96.00;;;;;;4997740;28;20038;-81
2021/01/14 13:54:08;;;;;;;3.88;2.15;;;2.70;96.00;;;;;;4997216;28;20109;-81
2021/01/14 13:56:35;;;;;;;4.03;2.10;;;2.60;95.60;;;;;;4965669;28;20055;-81
2021/01/14 13:59:04;;;;;;;4.50;1.95;;;2.60;95.70;;;;;;4966379;28;20057;-81
2021/01/14 14:01:32;;;;;;;5.05;1.90;;;2.70;95.70;;;;;;4998765;28;20046;-80
2021/01/14 14:04:00;;;;;;;4.55;1.75;;;2.70;95.40;;;;;;4997616;28;20469;-80
2021/01/14 14:06:39;;;;;;;4.32;2.00;;;2.70;95.00;;;;;;4998001;28;20077;-81
2021/01/14 14:09:22;;;;;;;6.10;2.05;;;2.80;94.90;;;;;;4998298;28;20058;-82
2021/01/14 14:11:52;;;;;;;4.10;1.73;;;2.80;95.10;;;;;;4981889;28;20094;-83
2021/01/14 14:14:22;;;;;;;4.13;1.80;;;2.90;95.10;;;;;;4997751;28;20070;-80
2021/01/14 14:17:02;;;;;;;3.88;2.00;;;2.90;95.00;;;;;;4996290;28;20066;-82
2021/01/14 14:19:29;;;;;;;4.22;2.00;;;3.00;95.00;;;;;;4997789;28;20085;-82
2021/01/14 14:21:56;;;;;;;4.15;2.00;;;3.00;95.10;;;;;;4995067;28;20054;-82
2021/01/14 14:24:22;;;;;;;4.90;2.10;;;3.20;95.20;;;;;;4993141;28;20082;-83
2021/01/14 14:26:49;;;;;;;4.63;2.00;;;3.10;95.10;;;;;;4995353;28;20055;-81
2021/01/14 14:29:16;;;;;;;4.55;2.08;;;3.30;95.20;;;;;;4976206;28;20075;-84
2021/01/14 14:31:44;;;;;;;5.03;2.10;;;3.30;95.20;;;;;;4994681;28;20082;-85
2021/01/14 14:34:12;;;;;;;5.47;2.55;;;3.30;94.90;;;;;;4970534;28;20133;-82
2021/01/14 14:36:42;;;;;;;5.25;1.90;;;3.30;95.00;;;;;;4973844;28;20047;-82
2021/01/14 14:39:09;;;;;;;5.45;2.17;;;3.30;95.10;;;;;;4988115;28;20055;-82
2021/01/14 14:41:36;;;;;;;5.28;2.28;;;3.40;95.10;;;;;;4993364;28;20489;-81
2021/01/14 14:44:04;;;;;;;4.78;2.00;;;3.30;94.60;;;;;;4976215;28;20576;-82
2021/01/14 14:46:31;;;;;;;3.97;1.98;;;3.30;95.00;;;;;;4986656;28;20049;-83
2021/01/14 14:49:11;;;;;;;4.55;2.13;;;3.30;94.90;;;;;;4960498;29;20051;-81
2021/01/14 14:51:48;;;;;;;4.68;2.33;;;3.30;94.80;;;;;;4969783;28;20051;-84
2021/01/14 14:54:15;;;;;;;4.82;1.95;;;3.40;95.20;;;;;;4968527;29;20051;-82
2021/01/14 14:56:42;;;;;;;4.20;2.13;;;3.40;95.20;;;;;;4947451;28;20508;-80
2021/01/14 15:01:55;;;;;;;4.82;2.00;;;3.40;94.90;;;;;;4973605;28;20508;-80
2021/01/14 15:04:23;;;;;;;5.15;2.58;;;3.40;94.30;;;;;;4970856;29;20059;-81
2021/01/14 15:06:58;;;;;;;5.15;2.60;;;3.30;93.90;;;;;;4972960;29;20063;-83
2021/01/14 15:09:25;;;;;;;5.93;2.33;;;3.30;93.90;;;;;;4978330;28;20066;-82
2021/01/14 15:11:52;;;;;;;4.75;2.10;;;3.20;93.90;;;;;;4978895;28;20055;-81
2021/01/14 15:14:19;;;;;;;4.20;2.30;;;2.90;94.30;;;;;;4977190;29;20054;-82
2021/01/14 15:16:46;;;;;;;4.53;2.40;;;2.70;94.80;;;;;;4977566;28;20086;-81
2021/01/14 15:19:13;;;;;;;4.32;2.10;;;2.50;95.40;;;;;;4977172;28;20094;-82
2021/01/14 15:21:40;;;;;;;5.10;2.55;;;2.60;96.00;;;;;;4978785;28;20059;-79
2021/01/14 15:24:08;;;;;;;6.07;2.50;;;2.60;96.00;;;;;;4980500;28;20027;-81
2021/01/14 15:26:34;;;;;;;6.85;2.58;;;2.60;96.00;;;;;;4964270;28;20031;-82
2021/01/14 15:29:01;;;;;;;5.50;2.58;;;2.50;96.00;;;;;;4979071;28;20065;-81
2021/01/14 15:31:28;;;;;;;5.82;2.70;;;2.50;96.40;;;;;;4963237;29;20082;-82
2021/01/14 15:33:56;;;;;;;4.70;2.70;;;2.60;96.30;;;;;;4961496;29;20087;-81
2021/01/14 15:36:30;;;;;;;6.88;3.00;;;2.40;96.60;;;;;;4974906;29;20047;-81
2021/01/14 15:38:58;;;;;;;7.35;3.20;;;2.30;96.80;;;;;;4976429;29;20103;-81
2021/01/14 15:41:32;;;;;;;7.32;3.10;;;2.30;96.90;;;;;;4976936;29;20118;-82
2021/01/14 15:43:59;;;;;;;6.25;3.00;;;2.40;96.70;;;;;;4993369;28;20059;-83
2021/01/14 15:46:26;;;;;;;5.25;2.80;;;2.40;96.80;;;;;;4979215;28;20059;-82
2021/01/14 15:48:53;;;;;;;6.50;3.20;;;2.50;96.50;;;;;;4961899;29;20058;-82
2021/01/14 15:51:22;;;;;;;5.47;3.10;;;2.60;96.10;;;;;;4961254;29;20102;-83
2021/01/14 15:53:57;;;;;;;6.00;3.10;;;2.40;95.80;;;;;;4976643;29;20039;-82
2021/01/14 15:56:29;;;;;;;6.43;3.30;;;2.40;96.30;;;;;;4973967;28;20055;-82
2021/01/14 15:59:31;;;;;;;6.80;3.30;;;2.40;96.40;;;;;;4969886;29;20111;-79
2021/01/14 16:02:03;;;;;;;6.72;3.20;;;2.50;96.50;;;;;;4960560;28;20044;-82
2021/01/14 17:57:52;;;;;;;7.43;4.68;;;2.70;97.00;;;;;;5449370;23;20066;-83
2021/01/14 18:00:21;;;;;;;8.05;4.53;;;2.50;96.70;;;;;;4987428;28;20034;-79
2021/01/14 18:02:49;;;;;;;7.72;4.60;;;2.60;97.20;;;;;;5015726;28;20061;-82
2021/01/14 18:05:16;;;;;;;8.18;4.47;;;2.60;97.50;;;;;;5016981;28;20060;-81
2021/01/14 18:08:26;;;;;;;8.93;5.10;;;2.50;97.30;;;;;;5018291;28;20122;-82
2021/01/14 18:10:57;;;;;;;7.53;4.20;;;2.50;97.60;;;;;;5016090;28;20054;-82
2021/01/14 18:18:34;;;;;;;7.70;4.70;;;2.40;97.70;;;;;;5916396;23;19923;-79
2021/01/14 18:23:43;;;;;;;9.80;5.03;;;2.50;97.70;;;;;;5051286;23;20064;-82
2021/01/14 18:26:11;;;;;;;8.52;5.20;;;2.60;97.60;;;;;;5037969;28;20057;-81
2021/01/14 18:28:40;;;;;;;9.32;4.93;;;2.60;97.50;;;;;;5012768;28;20046;-80
2021/01/14 21:17:43;;;;;;;15.25;8.73;;;2.70;96.30;;;;;;5394649;23;20058;-81
2021/01/14 21:30:27;;;;;;;16.40;9.23;;;2.70;95.60;;;;;;5170863;23;20042;-82
2021/01/14 21:33:53;;;;;;;17.48;9.50;;;2.60;95.60;;;;;;5030109;28;20050;-82
2021/01/14 21:47:07;;;;;;;14.40;8.90;;;2.20;95.00;;;;;;5588343;23;20030;-81
2021/01/14 21:49:37;;;;;;;15.85;8.93;;;2.00;95.90;;;;;;5021563;28;20121;-82
2021/01/14 21:52:07;;;;;;;15.20;8.90;;;1.80;95.70;;;;;;5038348;28;20141;-81
2021/01/14 21:54:37;;;;;;;15.48;8.38;;;2.10;95.70;;;;;;5037396;28;20057;-81
2021/01/14 21:57:09;;;;;;;15.57;8.98;;;2.10;95.50;;;;;;5020635;28;20113;-82
2021/01/14 21:59:37;;;;;;;14.75;8.50;;;2.20;95.40;;;;;;5006420;28;20056;-81
2021/01/14 22:02:05;;;;;;;15.05;8.73;;;2.30;95.20;;;;;;5022442;28;20065;-81
2021/01/14 22:04:33;;;;;;;14.63;9.00;;;2.40;95.10;;;;;;5022627;28;20022;-81
2021/01/14 22:07:00;;;;;;;14.30;8.55;;;2.60;94.90;;;;;;5038994;28;20053;-83
2021/01/14 22:09:29;;;;;;;13.15;8.48;;;2.50;95.00;;;;;;5039636;28;20059;-82
2021/01/14 22:11:56;;;;;;;12.65;7.82;;;2.60;94.70;;;;;;5006869;28;20110;-80
2021/01/14 22:14:24;;;;;;;13.40;7.93;;;2.60;94.20;;;;;;5039274;28;20041;-81
